createdAt,value
2023-03-02T00:04:22.712Z,6.55
2023-03-02T00:09:51.718Z,7.75
2023-03-02T00:15:15.740Z,6.65
2023-03-02T00:20:46.733Z,6.75
2023-03-02T00:26:14.763Z,7.93
2023-03-02T00:31:38.745Z,8.02
2023-03-02T00:37:03.725Z,7.35
2023-03-02T00:42:30.732Z,6.28
2023-03-02T00:47:55.716Z,6.85
2023-03-02T00:53:20.721Z,7.72
2023-03-02T00:58:48.750Z,6.40
2023-03-02T01:04:19.729Z,7.38
2023-03-02T01:09:44.862Z,5.97
2023-03-02T01:15:11.748Z,6.50
2023-03-02T01:20:37.750Z,8.45
2023-03-02T01:26:02.780Z,8.23
2023-03-02T01:31:30.776Z,6.45
2023-03-02T01:36:55.755Z,9.68
2023-03-02T01:43:11.576Z,8.50
2023-03-02T01:48:43.730Z,7.13
2023-03-02T01:54:29.739Z,7.93
2023-03-02T01:59:56.776Z,7.50
2023-03-02T02:05:40.770Z,8.63
2023-03-02T02:11:05.743Z,7.65
2023-03-02T02:16:31.380Z,8.35
2023-03-02T02:21:59.796Z,8.77
2023-03-02T02:27:28.766Z,8.80
2023-03-02T02:32:56.788Z,7.50
2023-03-02T02:38:23.801Z,7.40
2023-03-02T02:43:51.789Z,7.72
2023-03-02T02:49:18.776Z,7.82
2023-03-02T02:54:45.748Z,8.30
2023-03-02T03:00:18.782Z,7.88
2023-03-02T03:05:49.797Z,7.38
2023-03-02T03:11:15.797Z,7.80
2023-03-02T03:16:46.837Z,8.75
2023-03-02T03:22:11.778Z,7.88
2023-03-02T03:27:39.770Z,8.55
2023-03-02T03:33:08.766Z,7.90
2023-03-02T03:38:33.800Z,8.73
2023-03-02T03:43:58.768Z,7.65
2023-03-02T03:49:27.842Z,8.07
2023-03-02T03:54:53.782Z,8.90
2023-03-02T04:00:23.777Z,8.43
2023-03-02T04:06:03.801Z,10.60
2023-03-02T04:11:28.818Z,10.23
2023-03-02T04:16:54.813Z,9.65
2023-03-02T04:22:22.805Z,8.32
2023-03-02T04:27:47.809Z,8.43
2023-03-02T04:33:14.829Z,9.48
2023-03-02T04:38:41.796Z,10.05
2023-03-02T04:44:06.839Z,9.35
2023-03-02T04:49:33.805Z,9.35
2023-03-02T04:55:01.836Z,10.52
2023-03-02T05:00:28.873Z,9.25
2023-03-02T05:05:59.834Z,9.43
2023-03-02T05:11:32.811Z,8.85
2023-03-02T05:16:57.838Z,10.48
2023-03-02T05:22:22.814Z,9.75
2023-03-02T05:27:49.843Z,9.77
2023-03-02T05:33:14.849Z,11.15
2023-03-02T05:38:39.860Z,10.93
2023-03-02T05:44:07.843Z,10.05
2023-03-02T05:49:31.885Z,10.15
2023-03-02T05:54:59.137Z,10.25
2023-03-02T06:00:27.839Z,10.60
2023-03-02T06:05:59.826Z,11.40
2023-03-02T06:11:24.863Z,12.40
2023-03-02T06:16:51.845Z,11.00
2023-03-02T06:22:16.842Z,9.50
2023-03-02T06:27:40.853Z,9.50
2023-03-02T06:33:08.990Z,9.82
2023-03-02T06:38:32.837Z,11.35
2023-03-02T06:43:57.877Z,10.73
2023-03-02T06:49:25.832Z,9.88
2023-03-02T06:54:50.846Z,10.65
2023-03-02T07:00:17.838Z,10.77
2023-03-02T07:05:51.928Z,13.82
2023-03-02T07:11:17.889Z,11.38
2023-03-02T07:16:42.916Z,12.40
2023-03-02T07:22:10.822Z,10.57
2023-03-02T07:27:34.861Z,12.02
2023-03-02T07:32:59.895Z,14.13
2023-03-02T07:38:26.860Z,15.23
2023-03-02T07:43:51.881Z,12.70
2023-03-02T07:49:15.879Z,12.00
2023-03-02T07:54:43.865Z,14.65
2023-03-02T08:00:07.854Z,13.90
2023-03-02T08:05:39.877Z,13.55
2023-03-02T08:11:13.872Z,12.73
2023-03-02T08:16:38.015Z,14.80
2023-03-02T08:22:02.967Z,13.30
2023-03-02T08:27:31.862Z,12.30
2023-03-02T08:32:56.887Z,13.88
2023-03-02T08:38:20.888Z,12.43
2023-03-02T08:43:48.902Z,12.73
2023-03-02T08:49:12.887Z,13.73
2023-03-02T08:54:37.995Z,12.65
2023-03-02T09:00:04.913Z,14.68
2023-03-02T09:05:35.884Z,13.60
2023-03-02T09:11:00.950Z,12.65
2023-03-02T09:16:30.907Z,15.32
2023-03-02T09:21:56.929Z,13.55
2023-03-02T09:27:20.929Z,12.15
2023-03-02T09:32:49.107Z,12.23
2023-03-02T09:38:12.994Z,13.02
2023-03-02T09:43:51.883Z,13.00
2023-03-02T09:49:32.892Z,11.93
2023-03-02T09:54:57.934Z,13.73
2023-03-02T10:00:27.928Z,12.20
2023-03-02T10:06:02.908Z,12.68
2023-03-02T10:11:36.936Z,12.18
2023-03-02T10:17:04.901Z,11.90
2023-03-02T10:22:37.909Z,14.77
2023-03-02T10:28:06.942Z,13.15
2023-03-02T10:33:31.936Z,13.50
2023-03-02T10:38:58.966Z,11.45
2023-03-02T10:44:30.965Z,12.60
2023-03-02T10:49:58.930Z,10.13
2023-03-02T10:55:26.928Z,9.75
2023-03-02T11:00:51.913Z,10.52
2023-03-02T11:06:35.182Z,11.65
2023-03-02T11:12:08.042Z,9.48
2023-03-02T11:17:45.948Z,10.15
2023-03-02T11:23:24.119Z,11.10
2023-03-02T11:29:01.952Z,10.20
2023-03-02T11:34:37.934Z,8.30
2023-03-02T11:40:17.933Z,9.68
2023-03-02T11:45:51.956Z,11.48
2023-03-02T11:51:19.949Z,9.38
2023-03-02T11:56:47.949Z,9.38
2023-03-02T12:02:16.046Z,9.93
2023-03-02T12:07:40.973Z,9.60
2023-03-02T12:13:17.942Z,6.32
2023-03-02T12:19:05.971Z,7.47
2023-03-02T12:24:42.952Z,6.65
2023-03-02T12:30:22.016Z,9.65
2023-03-02T12:35:50.002Z,7.90
2023-03-02T12:41:56.068Z,7.88
2023-03-02T12:47:34.069Z,9.40
2023-03-02T12:53:09.970Z,9.00
2023-03-02T12:58:43.971Z,8.18
2023-03-02T13:04:09.005Z,11.55
2023-03-02T13:09:40.000Z,7.97
2023-03-02T13:15:07.995Z,6.50
2023-03-02T13:20:33.017Z,6.03
2023-03-02T13:26:02.999Z,6.82
2023-03-02T13:31:36.050Z,6.55
2023-03-02T13:37:02.052Z,6.50
2023-03-02T13:42:46.013Z,5.78
2023-03-02T13:48:24.039Z,8.95
2023-03-02T13:54:00.065Z,5.35
2023-03-02T13:59:29.004Z,6.45
2023-03-02T14:04:53.132Z,5.78
2023-03-02T14:10:20.036Z,5.88
2023-03-02T14:15:47.103Z,3.90
2023-03-02T14:21:12.059Z,4.47
2023-03-02T14:26:50.089Z,6.25
2023-03-02T14:32:20.084Z,4.90
2023-03-02T14:37:45.008Z,5.80
2023-03-02T14:43:10.043Z,5.75
2023-03-02T14:48:38.021Z,3.97
2023-03-02T14:54:06.031Z,4.07
2023-03-02T14:59:33.273Z,5.13
2023-03-02T15:05:07.053Z,6.72
2023-03-02T15:10:34.043Z,5.50
2023-03-02T15:16:00.119Z,5.03
2023-03-02T15:21:30.079Z,4.75
2023-03-02T15:26:54.070Z,4.80
2023-03-02T15:32:19.138Z,5.20
2023-03-02T15:37:46.064Z,4.50
2023-03-02T15:43:11.034Z,5.35
2023-03-02T15:48:35.060Z,5.00
2023-03-02T15:54:03.082Z,5.20
2023-03-02T15:59:28.061Z,5.55
2023-03-02T16:04:59.099Z,5.88
2023-03-02T16:10:28.063Z,8.57
2023-03-02T16:15:56.059Z,5.70
2023-03-02T16:21:22.095Z,6.38
2023-03-02T16:26:51.096Z,5.30
2023-03-02T16:32:16.189Z,8.05
2023-03-02T16:37:40.169Z,6.68
2023-03-02T16:43:08.107Z,7.82
2023-03-02T16:48:32.112Z,6.10
2023-03-02T16:53:58.099Z,6.72
2023-03-02T16:59:25.098Z,6.60
2023-03-02T17:04:50.120Z,8.75
2023-03-02T17:10:15.185Z,7.93
2023-03-02T17:15:43.169Z,8.32
2023-03-02T17:21:08.258Z,11.10
2023-03-02T17:26:36.628Z,13.60
2023-03-02T17:32:05.132Z,16.63
2023-03-02T17:37:32.120Z,18.17
2023-03-02T17:42:57.889Z,19.80
2023-03-02T17:48:28.116Z,20.10
2023-03-02T17:53:52.103Z,19.90
2023-03-02T17:59:17.132Z,24.77
2023-03-02T18:04:52.137Z,24.98
2023-03-02T18:10:22.153Z,24.38
2023-03-02T18:15:47.291Z,24.75
2023-03-02T18:21:16.135Z,27.02
2023-03-02T18:26:40.188Z,27.42
2023-03-02T18:32:20.167Z,29.20
2023-03-02T18:37:47.160Z,32.38
2023-03-02T18:43:12.140Z,43.50
2023-03-02T18:48:36.154Z,48.75
2023-03-02T18:54:04.156Z,58.92
2023-03-02T18:59:28.181Z,69.28
2023-03-02T19:04:53.128Z,86.03
2023-03-02T19:10:21.594Z,157.27
2023-03-02T19:15:46.183Z,162.48
2023-03-02T19:21:11.147Z,167.95
2023-03-02T19:26:39.175Z,176.25
2023-03-02T19:32:03.380Z,275.60
2023-03-02T19:37:28.145Z,324.95
2023-03-02T19:42:55.157Z,168.00
2023-03-02T19:48:20.143Z,182.10
2023-03-02T19:53:44.167Z,349.27
2023-03-02T19:59:12.191Z,176.88
2023-03-02T20:04:36.215Z,441.88
2023-03-02T20:10:01.172Z,367.42
2023-03-02T20:15:28.164Z,240.80
2023-03-02T20:20:55.176Z,303.63
2023-03-02T20:26:20.200Z,192.35
2023-03-02T20:31:48.177Z,273.25
2023-03-02T20:37:12.213Z,169.02
2023-03-02T20:42:39.162Z,219.95
2023-03-02T20:48:06.194Z,363.88
2023-03-02T20:53:32.305Z,204.82
2023-03-02T20:58:57.197Z,222.70
2023-03-02T21:04:25.264Z,243.82
2023-03-02T21:09:49.195Z,161.18
2023-03-02T21:15:15.176Z,214.48
2023-03-02T21:20:47.194Z,348.63
2023-03-02T21:26:12.208Z,118.25
2023-03-02T21:31:36.309Z,312.67
2023-03-02T21:37:11.218Z,372.23
2023-03-02T21:42:36.234Z,403.70
2023-03-02T21:48:01.213Z,342.13
2023-03-02T21:53:29.202Z,313.92
2023-03-02T21:58:54.250Z,265.65
2023-03-02T22:04:25.210Z,612.00
2023-03-02T22:09:53.294Z,583.80
2023-03-02T22:15:17.227Z,371.85
2023-03-02T22:20:42.190Z,247.70
2023-03-02T22:26:11.221Z,257.00
2023-03-02T22:31:36.239Z,507.73
2023-03-02T22:37:00.236Z,555.90
2023-03-02T22:42:30.260Z,218.65
2023-03-02T22:47:58.248Z,286.27
2023-03-02T22:53:33.261Z,267.23
2023-03-02T22:59:04.223Z,634.60
2023-03-02T23:04:38.310Z,756.10
2023-03-02T23:10:03.255Z,203.55
2023-03-02T23:15:36.262Z,271.02
2023-03-02T23:21:02.285Z,302.83
2023-03-02T23:26:27.254Z,282.13
2023-03-02T23:31:55.311Z,392.40
2023-03-02T23:37:19.279Z,201.32
2023-03-02T23:42:44.275Z,249.13
2023-03-02T23:48:11.249Z,297.35
2023-03-02T23:53:36.258Z,396.48
2023-03-02T23:59:00.255Z,385.15
